createdAt,value
2018-08-04T00:02:15.257Z,44.90
2018-08-04T00:04:48.980Z,45.07
2018-08-04T00:07:22.881Z,45.03
2018-08-04T00:09:55.310Z,44.93
2018-08-04T00:12:29.754Z,45.53
2018-08-04T00:15:01.909Z,45.27
2018-08-04T00:17:33.872Z,44.83
2018-08-04T00:20:04.295Z,45.80
2018-08-04T00:22:36.746Z,45.10
2018-08-04T00:25:12.206Z,45.13
2018-08-04T00:27:43.896Z,45.57
2018-08-04T00:30:15.590Z,44.70
2018-08-04T00:32:47.637Z,45.03
2018-08-04T00:35:21.697Z,44.63
2018-08-04T00:37:54.671Z,45.53
2018-08-04T00:40:26.988Z,45.43
2018-08-04T00:43:00.856Z,44.73
2018-08-04T00:45:32.628Z,45.07
2018-08-04T00:48:05.781Z,44.60
2018-08-04T00:50:40.851Z,44.80
2018-08-04T00:53:16.379Z,44.30
2018-08-04T00:55:49.317Z,45.17
2018-08-04T00:58:22.868Z,45.83
2018-08-04T01:00:56.880Z,45.23
2018-08-04T01:03:27.698Z,44.90
2018-08-04T01:06:01.342Z,47.20
2018-08-04T01:08:33.555Z,45.37
2018-08-04T01:11:07.033Z,45.37
2018-08-04T01:13:39.658Z,45.00
2018-08-04T01:16:10.319Z,44.87
2018-08-04T01:18:40.983Z,46.17
2018-08-04T01:21:11.024Z,46.47
2018-08-04T01:23:41.095Z,46.10
2018-08-04T01:26:12.175Z,46.27
2018-08-04T01:28:42.201Z,46.23
2018-08-04T01:31:13.994Z,46.87
2018-08-04T01:33:44.735Z,45.67
2018-08-04T01:36:16.832Z,45.47
2018-08-04T01:38:49.638Z,44.93
2018-08-04T01:41:21.735Z,45.37
2018-08-04T01:43:55.796Z,44.73
2018-08-04T01:46:28.128Z,45.87
2018-08-04T01:48:58.411Z,44.27
2018-08-04T01:51:31.733Z,44.13
2018-08-04T01:54:01.777Z,45.10
2018-08-04T01:56:32.719Z,45.90
2018-08-04T01:59:04.111Z,45.53
2018-08-04T02:01:35.193Z,45.13
2018-08-04T02:04:05.617Z,44.23
2018-08-04T02:06:36.627Z,44.37
2018-08-04T02:09:09.513Z,44.90
2018-08-04T02:11:40.629Z,44.93
2018-08-04T02:14:10.825Z,44.73
2018-08-04T02:16:40.900Z,44.10
2018-08-04T02:19:11.474Z,44.23
2018-08-04T02:21:41.884Z,44.77
2018-08-04T02:24:12.276Z,45.90
2018-08-04T02:26:42.580Z,45.70
2018-08-04T02:29:13.030Z,44.67
2018-08-04T02:31:43.356Z,44.60
2018-08-04T02:34:13.683Z,45.47
2018-08-04T02:36:44.189Z,45.10
2018-08-04T02:39:14.109Z,45.67
2018-08-04T02:41:45.452Z,45.57
2018-08-04T02:44:15.751Z,44.93
2018-08-04T02:46:46.439Z,45.33
2018-08-04T02:49:18.043Z,45.00
2018-08-04T02:51:48.622Z,46.87
2018-08-04T02:54:19.683Z,46.07
2018-08-04T02:56:50.414Z,45.37
2018-08-04T02:59:26.145Z,45.43
2018-08-04T03:01:58.723Z,45.63
2018-08-04T03:04:30.705Z,47.13
2018-08-04T03:07:01.399Z,46.70
2018-08-04T03:09:31.941Z,45.03
2018-08-04T03:12:03.704Z,45.67
2018-08-04T03:14:35.165Z,45.80
2018-08-04T03:17:05.842Z,46.13
2018-08-04T03:19:35.959Z,45.27
2018-08-04T03:22:06.502Z,45.10
2018-08-04T03:24:37.504Z,45.03
2018-08-04T03:27:07.812Z,44.77
2018-08-04T03:29:38.162Z,44.77
2018-08-04T03:32:08.655Z,45.17
2018-08-04T03:34:38.656Z,44.57
2018-08-04T03:37:08.762Z,44.57
2018-08-04T03:39:38.945Z,45.23
2018-08-04T03:42:09.109Z,44.20
2018-08-04T03:44:39.385Z,45.53
2018-08-04T03:47:09.889Z,45.20
2018-08-04T03:49:40.285Z,44.20
2018-08-04T03:52:12.019Z,43.53
2018-08-04T03:54:43.310Z,43.93
2018-08-04T03:57:13.690Z,44.33
2018-08-04T03:59:43.714Z,44.27
2018-08-04T04:02:14.312Z,43.70
2018-08-04T04:04:44.522Z,44.20
2018-08-04T04:07:14.665Z,44.30
2018-08-04T04:09:45.373Z,43.93
2018-08-04T04:12:16.021Z,44.43
2018-08-04T04:14:47.181Z,44.40
2018-08-04T04:17:17.553Z,44.60
2018-08-04T04:19:47.853Z,43.90
2018-08-04T04:22:19.994Z,43.03
2018-08-04T04:24:50.439Z,44.43
2018-08-04T04:27:20.497Z,44.77
2018-08-04T04:29:50.577Z,45.10
2018-08-04T04:32:20.931Z,44.60
2018-08-04T04:34:51.179Z,44.37
2018-08-04T04:37:21.635Z,44.70
2018-08-04T04:39:51.656Z,44.27
2018-08-04T04:42:22.097Z,45.60
2018-08-04T04:44:52.091Z,44.77
2018-08-04T04:47:23.086Z,44.73
2018-08-04T04:49:53.565Z,46.00
2018-08-04T04:52:25.679Z,45.63
2018-08-04T04:54:56.515Z,46.07
2018-08-04T04:57:26.658Z,46.00
2018-08-04T04:59:57.331Z,45.57
2018-08-04T05:02:27.554Z,45.87
2018-08-04T05:04:58.075Z,46.67
2018-08-04T05:07:28.253Z,46.23
2018-08-04T05:09:58.180Z,46.43
2018-08-04T05:12:28.893Z,47.37
2018-08-04T05:14:59.276Z,46.00
2018-08-04T05:17:29.610Z,46.17
2018-08-04T05:20:00.704Z,47.37
2018-08-04T05:22:33.194Z,47.33
2018-08-04T05:25:03.594Z,47.70
2018-08-04T05:27:35.298Z,47.90
2018-08-04T05:30:06.920Z,47.63
2018-08-04T05:32:37.586Z,47.77
2018-08-04T05:35:07.603Z,49.10
2018-08-04T05:37:38.031Z,49.07
2018-08-04T05:40:08.326Z,48.70
2018-08-04T05:42:38.763Z,47.30
2018-08-04T05:45:10.713Z,47.83
2018-08-04T05:47:41.436Z,46.97
2018-08-04T05:50:11.695Z,48.00
2018-08-04T05:52:43.438Z,49.10
2018-08-04T05:55:15.565Z,48.47
2018-08-04T05:57:47.302Z,48.17
2018-08-04T06:00:19.613Z,48.17
2018-08-04T06:02:50.272Z,48.87
2018-08-04T06:05:20.439Z,48.33
2018-08-04T06:07:50.880Z,47.63
2018-08-04T06:10:21.069Z,47.13
2018-08-04T06:12:51.282Z,47.20
2018-08-04T06:15:22.265Z,48.77
2018-08-04T06:17:52.482Z,47.70
2018-08-04T06:20:22.866Z,48.20
2018-08-04T06:22:53.210Z,49.13
2018-08-04T06:25:26.156Z,47.30
2018-08-04T06:27:57.488Z,47.27
2018-08-04T06:30:27.536Z,47.47
2018-08-04T06:32:58.334Z,48.10
2018-08-04T06:35:29.466Z,48.83
2018-08-04T06:37:59.935Z,48.67
2018-08-04T06:40:30.901Z,48.50
2018-08-04T06:43:01.751Z,48.17
2018-08-04T06:45:33.976Z,48.50
2018-08-04T06:48:04.268Z,47.03
2018-08-04T06:50:34.411Z,48.50
2018-08-04T06:53:05.407Z,46.87
2018-08-04T06:55:36.174Z,46.60
2018-08-04T06:58:06.592Z,49.10
2018-08-04T07:00:36.567Z,63.07
2018-08-04T07:03:06.958Z,48.67
2018-08-04T07:05:37.110Z,47.43
2018-08-04T07:08:07.447Z,46.57
2018-08-04T07:10:37.690Z,48.30
2018-08-04T07:13:08.469Z,48.87
2018-08-04T07:15:39.919Z,47.37
2018-08-04T07:18:10.550Z,46.37
2018-08-04T07:20:41.123Z,46.17
2018-08-04T07:23:11.823Z,46.07
2018-08-04T07:25:42.211Z,48.67
2018-08-04T07:28:12.790Z,48.67
2018-08-04T07:30:42.889Z,47.23
2018-08-04T07:33:14.013Z,47.80
2018-08-04T07:35:44.333Z,47.67
2018-08-04T07:38:15.274Z,47.87
2018-08-04T07:40:45.668Z,47.27
2018-08-04T07:43:15.969Z,46.37
2018-08-04T07:45:46.044Z,46.40
2018-08-04T07:48:16.698Z,46.07
2018-08-04T07:50:46.918Z,46.03
2018-08-04T07:53:17.811Z,46.90
2018-08-04T07:55:51.046Z,46.70
2018-08-04T07:58:21.411Z,46.63
2018-08-04T08:00:53.566Z,47.43
2018-08-04T08:03:23.961Z,46.70
2018-08-04T08:05:53.985Z,45.80
2018-08-04T08:08:24.293Z,46.77
2018-08-04T08:10:55.244Z,46.50
2018-08-04T08:13:28.349Z,45.97
2018-08-04T08:15:58.671Z,45.77
2018-08-04T08:18:30.393Z,45.70
2018-08-04T08:21:00.594Z,46.13
2018-08-04T08:23:31.229Z,46.03
2018-08-04T08:26:08.010Z,47.27
2018-08-04T08:28:39.340Z,47.33
2018-08-04T08:31:11.661Z,48.00
2018-08-04T08:33:42.376Z,47.33
2018-08-04T08:36:13.482Z,47.90
2018-08-04T08:38:44.939Z,48.43
2018-08-04T08:41:15.618Z,47.83
2018-08-04T08:43:46.625Z,47.30
2018-08-04T08:46:17.105Z,47.40
2018-08-04T08:48:47.157Z,46.73
2018-08-04T08:51:17.605Z,46.77
2018-08-04T08:53:48.356Z,45.57
2018-08-04T08:56:18.822Z,46.43
2018-08-04T08:58:49.119Z,46.67
2018-08-04T09:01:20.214Z,47.03
2018-08-04T09:03:50.824Z,46.17
2018-08-04T09:06:21.315Z,46.00
2018-08-04T09:08:51.563Z,46.97
2018-08-04T09:11:21.834Z,47.03
2018-08-04T09:13:53.047Z,46.57
2018-08-04T09:16:24.285Z,44.57
2018-08-04T09:18:55.344Z,46.83
2018-08-04T09:21:25.892Z,46.33
2018-08-04T09:23:56.630Z,47.53
2018-08-04T09:26:27.929Z,45.50
2018-08-04T09:28:59.586Z,46.03
2018-08-04T09:31:30.067Z,46.53
2018-08-04T09:34:00.952Z,46.33
2018-08-04T09:36:32.852Z,46.33
2018-08-04T09:39:05.864Z,46.33
2018-08-04T09:41:36.206Z,46.70
2018-08-04T09:44:07.138Z,46.20
2018-08-04T09:46:39.005Z,46.77
2018-08-04T09:49:09.249Z,47.20
2018-08-04T09:51:40.027Z,46.73
2018-08-04T09:54:10.154Z,47.33
2018-08-04T09:56:41.042Z,46.67
2018-08-04T09:59:12.456Z,46.43
2018-08-04T10:01:42.758Z,45.93
2018-08-04T10:04:12.901Z,46.17
2018-08-04T10:06:44.437Z,46.20
2018-08-04T10:09:14.934Z,46.00
2018-08-04T10:11:45.296Z,46.27
2018-08-04T10:14:15.262Z,45.77
2018-08-04T10:16:46.444Z,46.93
2018-08-04T10:19:17.062Z,47.40
2018-08-04T10:21:47.467Z,47.30
2018-08-04T10:24:19.325Z,46.27
2018-08-04T10:26:49.598Z,47.13
2018-08-04T10:29:22.474Z,46.23
2018-08-04T10:31:53.085Z,47.33
2018-08-04T10:34:23.868Z,47.13
2018-08-04T10:36:54.219Z,46.53
2018-08-04T10:39:24.622Z,46.80
2018-08-04T10:41:55.590Z,46.10
2018-08-04T10:44:26.487Z,47.10
2018-08-04T10:46:57.866Z,46.20
2018-08-04T10:49:28.942Z,46.37
2018-08-04T10:51:59.730Z,46.50
2018-08-04T10:54:30.441Z,46.17
2018-08-04T10:57:00.608Z,46.70
2018-08-04T10:59:32.423Z,46.67
2018-08-04T11:02:02.597Z,45.50
2018-08-04T11:04:33.850Z,46.33
2018-08-04T11:07:04.362Z,46.20
2018-08-04T11:09:34.715Z,46.50
2018-08-04T11:12:05.704Z,47.07
2018-08-04T11:14:35.649Z,47.17
2018-08-04T11:17:06.743Z,46.43
2018-08-04T11:19:36.920Z,45.87
2018-08-04T11:22:13.867Z,45.33
2018-08-04T11:24:44.493Z,45.53
2018-08-04T11:27:15.548Z,45.27
2018-08-04T11:29:47.025Z,46.60
2018-08-04T11:32:17.350Z,46.17
2018-08-04T11:34:47.425Z,45.97
2018-08-04T11:37:17.596Z,46.90
2018-08-04T11:39:48.950Z,46.73
2018-08-04T11:42:21.042Z,47.97
2018-08-04T11:44:54.214Z,47.63
2018-08-04T11:47:25.609Z,46.70
2018-08-04T11:49:57.195Z,46.87
2018-08-04T11:52:27.860Z,47.77
2018-08-04T11:54:58.097Z,47.43
2018-08-04T11:57:29.905Z,47.27
2018-08-04T12:00:00.543Z,47.03
2018-08-04T12:02:31.413Z,46.60
2018-08-04T12:05:02.276Z,46.73
2018-08-04T12:07:32.877Z,47.90
2018-08-04T12:10:04.104Z,47.73
2018-08-04T12:12:36.110Z,47.13
2018-08-04T12:15:06.306Z,48.07
2018-08-04T12:17:40.647Z,47.60
2018-08-04T12:20:12.420Z,48.37
2018-08-04T12:22:42.581Z,47.60
2018-08-04T12:25:13.765Z,47.70
2018-08-04T12:27:45.415Z,47.53
2018-08-04T12:30:17.746Z,47.27
2018-08-04T12:32:49.475Z,46.80
2018-08-04T12:35:19.678Z,46.60
2018-08-04T12:37:51.121Z,46.87
2018-08-04T12:40:22.191Z,46.70
2018-08-04T12:42:56.821Z,47.13
2018-08-04T12:45:29.373Z,47.00
2018-08-04T12:48:00.617Z,47.90
2018-08-04T12:50:30.814Z,48.37
2018-08-04T12:53:02.805Z,48.40
2018-08-04T12:55:35.809Z,47.33
2018-08-04T12:58:07.735Z,47.90
2018-08-04T13:00:38.517Z,48.77
2018-08-04T13:03:08.898Z,47.00
2018-08-04T13:05:39.225Z,46.43
2018-08-04T13:08:09.583Z,47.20
2018-08-04T13:10:39.765Z,46.33
2018-08-04T13:13:10.320Z,47.10
2018-08-04T13:15:40.454Z,46.53
2018-08-04T13:18:11.602Z,46.33
2018-08-04T13:20:42.682Z,46.10
2018-08-04T13:23:14.029Z,46.73
2018-08-04T13:25:45.579Z,47.07
2018-08-04T13:28:18.507Z,47.43
2018-08-04T13:30:49.726Z,46.73
2018-08-04T13:33:20.289Z,45.80
2018-08-04T13:35:50.984Z,45.50
2018-08-04T13:38:22.060Z,46.20
2018-08-04T13:40:52.736Z,47.07
2018-08-04T13:43:23.739Z,46.33
2018-08-04T13:50:45.303Z,46.13
2018-08-04T13:53:15.420Z,46.90
2018-08-04T13:55:46.190Z,47.60
2018-08-04T13:58:16.472Z,46.33
2018-08-04T14:00:46.690Z,46.67
2018-08-04T14:03:16.766Z,47.60
2018-08-04T14:05:47.172Z,46.80
2018-08-04T14:08:17.858Z,46.07
2018-08-04T14:10:48.357Z,46.60
2018-08-04T14:13:19.060Z,47.23
2018-08-04T14:15:51.894Z,47.27
2018-08-04T14:18:22.801Z,46.87
2018-08-04T14:20:54.534Z,47.23
2018-08-04T14:23:24.917Z,47.40
2018-08-04T14:25:56.171Z,47.23
2018-08-04T14:28:26.112Z,46.40
2018-08-04T14:30:57.182Z,45.63
2018-08-04T14:33:27.626Z,46.77
2018-08-04T14:35:58.437Z,47.47
2018-08-04T14:38:29.825Z,47.10
2018-08-04T14:41:00.238Z,47.23
2018-08-04T14:43:30.650Z,46.42
2018-08-04T14:46:01.793Z,47.00
2018-08-04T14:48:33.812Z,46.95
2018-08-04T14:51:03.913Z,46.63
2018-08-04T14:53:34.215Z,46.42
2018-08-04T14:56:05.403Z,46.53
2018-08-04T14:58:35.793Z,47.35
2018-08-04T15:01:06.486Z,64.30
2018-08-04T15:03:37.114Z,47.23
2018-08-04T15:06:07.490Z,46.58
2018-08-04T15:08:37.837Z,46.88
2018-08-04T15:11:09.321Z,47.10
2018-08-04T15:13:39.712Z,46.77
2018-08-04T15:16:09.893Z,47.17
2018-08-04T15:18:41.365Z,46.70
2018-08-04T15:21:12.533Z,47.13
2018-08-04T15:23:43.401Z,46.68
2018-08-04T15:26:15.583Z,47.58
2018-08-04T15:28:46.567Z,47.10
2018-08-04T15:31:17.096Z,47.48
2018-08-04T15:33:48.255Z,46.05
2018-08-04T15:36:19.846Z,46.55
2018-08-04T15:38:50.257Z,46.92
2018-08-04T15:41:21.857Z,47.00
2018-08-04T15:43:52.527Z,47.45
2018-08-04T15:46:22.847Z,46.55
2018-08-04T15:48:52.981Z,46.83
2018-08-04T15:51:23.112Z,46.70
2018-08-04T15:53:53.977Z,46.88
2018-08-04T15:56:26.071Z,47.00
2018-08-04T15:58:56.528Z,47.03
2018-08-04T16:01:26.871Z,47.43
2018-08-04T16:03:56.991Z,46.73
2018-08-04T16:06:28.075Z,46.85
2018-08-04T16:08:58.458Z,46.98
2018-08-04T16:11:28.969Z,47.10
2018-08-04T16:13:59.311Z,46.15
2018-08-04T16:16:29.299Z,46.55
2018-08-04T16:18:59.896Z,47.62
2018-08-04T16:21:30.463Z,47.62
2018-08-04T16:24:00.529Z,47.70
2018-08-04T16:26:30.873Z,47.35
2018-08-04T16:29:02.102Z,47.58
2018-08-04T16:31:32.279Z,46.75
2018-08-04T16:34:02.371Z,47.20
2018-08-04T16:36:32.447Z,47.13
2018-08-04T16:39:02.573Z,48.23
2018-08-04T16:41:33.032Z,47.83
2018-08-04T16:44:03.459Z,47.33
2018-08-04T16:46:33.595Z,46.53
2018-08-04T16:49:03.829Z,47.38
2018-08-04T16:51:34.797Z,46.63
2018-08-04T16:54:05.091Z,48.00
2018-08-04T16:56:35.679Z,47.35
2018-08-04T16:59:08.043Z,47.78
2018-08-04T17:01:38.986Z,46.13
2018-08-04T17:04:11.218Z,46.75
2018-08-04T17:06:41.079Z,48.35
2018-08-04T17:09:13.021Z,47.60
2018-08-04T17:11:43.413Z,47.23
2018-08-04T17:14:14.250Z,46.93
2018-08-04T17:16:44.521Z,46.47
2018-08-04T17:19:14.816Z,47.53
2018-08-04T17:21:45.004Z,46.50
2018-08-04T17:24:15.162Z,46.97
2018-08-04T17:26:47.634Z,46.13
2018-08-04T17:29:18.265Z,46.20
2018-08-04T17:31:48.325Z,46.30
2018-08-04T17:34:20.074Z,46.87
2018-08-04T17:36:50.371Z,47.10
2018-08-04T17:39:21.197Z,46.00
2018-08-04T17:41:51.703Z,46.33
2018-08-04T17:44:22.261Z,46.13
2018-08-04T17:46:52.453Z,47.83
2018-08-04T17:49:24.889Z,47.20
2018-08-04T17:51:57.463Z,46.23
2018-08-04T17:54:28.869Z,46.43
2018-08-04T17:56:59.600Z,46.70
2018-08-04T17:59:30.288Z,46.40
2018-08-04T18:02:01.786Z,46.57
2018-08-04T18:04:32.949Z,47.33
2018-08-04T18:07:04.142Z,47.27
2018-08-04T18:09:34.212Z,47.07
2018-08-04T18:12:05.511Z,47.83
2018-08-04T18:14:35.368Z,47.27
2018-08-04T18:17:05.950Z,46.83
2018-08-04T18:19:36.385Z,46.37
2018-08-04T18:22:06.816Z,46.80
2018-08-04T18:24:37.164Z,46.77
2018-08-04T18:27:09.126Z,47.87
2018-08-04T18:29:40.339Z,47.53
2018-08-04T18:32:11.529Z,46.43
2018-08-04T18:34:42.622Z,46.23
2018-08-04T18:37:13.984Z,46.37
2018-08-04T18:39:45.600Z,46.67
2018-08-04T18:42:15.726Z,46.90
2018-08-04T18:44:46.150Z,46.50
2018-08-04T18:47:16.702Z,46.63
2018-08-04T18:49:46.892Z,45.83
2018-08-04T18:52:17.969Z,46.67
2018-08-04T18:54:48.749Z,48.07
2018-08-04T18:57:19.189Z,46.67
2018-08-04T18:59:50.281Z,47.03
2018-08-04T19:02:20.917Z,47.27
2018-08-04T19:04:51.089Z,46.63
2018-08-04T19:07:21.667Z,46.53
2018-08-04T19:09:51.660Z,46.77
2018-08-04T19:12:28.738Z,45.37
2018-08-04T19:14:58.675Z,45.73
2018-08-04T19:17:35.628Z,45.90
2018-08-04T19:20:06.649Z,46.80
2018-08-04T19:22:37.733Z,45.67
2018-08-04T19:25:07.998Z,45.93
2018-08-04T19:27:38.394Z,45.70
2018-08-04T19:30:09.509Z,45.87
2018-08-04T19:32:39.715Z,46.43
2018-08-04T19:35:10.392Z,46.47
2018-08-04T19:37:41.766Z,45.33
2018-08-04T19:40:12.057Z,46.53
2018-08-04T19:42:42.399Z,45.17
2018-08-04T19:45:12.126Z,45.77
2018-08-04T19:47:42.282Z,45.70
2018-08-04T19:50:12.737Z,45.13
2018-08-04T19:52:43.379Z,45.83
2018-08-04T19:55:13.627Z,44.83
2018-08-04T19:57:44.881Z,45.73
2018-08-04T20:00:15.602Z,46.23
2018-08-04T20:02:45.800Z,45.57
2018-08-04T20:05:16.162Z,45.13
2018-08-04T20:07:46.561Z,44.20
2018-08-04T20:10:16.849Z,45.23
2018-08-04T20:12:47.078Z,45.37
2018-08-04T20:15:18.613Z,46.23
2018-08-04T20:17:48.949Z,47.13
2018-08-04T20:20:19.409Z,45.27
2018-08-04T20:22:49.986Z,44.67
2018-08-04T20:25:20.283Z,44.43
2018-08-04T20:27:50.635Z,45.83
2018-08-04T20:30:20.803Z,45.23
2018-08-04T20:32:51.205Z,45.37
2018-08-04T20:35:21.726Z,44.40
2018-08-04T20:37:52.011Z,43.77
2018-08-04T20:40:23.341Z,44.53
2018-08-04T20:42:53.858Z,45.97
2018-08-04T20:45:24.037Z,44.50
2018-08-04T20:47:55.501Z,44.73
2018-08-04T20:50:27.117Z,43.37
2018-08-04T20:52:58.104Z,44.40
2018-08-04T20:55:29.205Z,44.57
2018-08-04T20:58:00.392Z,44.97
2018-08-04T21:00:41.598Z,45.20
2018-08-04T21:03:13.297Z,45.37
2018-08-04T21:05:43.586Z,44.77
2018-08-04T21:08:14.704Z,45.50
2018-08-04T21:10:48.006Z,44.13
2018-08-04T21:13:19.578Z,44.60
2018-08-04T21:15:50.582Z,43.77
2018-08-04T21:18:22.956Z,44.03
2018-08-04T21:20:59.457Z,45.20
2018-08-04T21:23:30.926Z,43.07
2018-08-04T21:26:01.487Z,43.30
2018-08-04T21:28:32.481Z,43.03
2018-08-04T21:31:03.083Z,43.10
2018-08-04T21:33:36.308Z,44.63
2018-08-04T21:36:06.482Z,43.67
2018-08-04T21:38:36.670Z,44.77
2018-08-04T21:41:07.590Z,44.60
2018-08-04T21:43:38.426Z,44.83
2018-08-04T21:46:08.751Z,44.40
2018-08-04T21:48:38.918Z,44.43
2018-08-04T21:51:09.261Z,44.80
2018-08-04T21:53:39.461Z,44.17
2018-08-04T21:56:09.431Z,43.00
2018-08-04T21:58:40.006Z,44.00
2018-08-04T22:01:14.271Z,44.40
2018-08-04T22:03:45.547Z,43.93
2018-08-04T22:06:17.455Z,43.37
2018-08-04T22:09:04.175Z,43.73
2018-08-04T22:11:34.916Z,44.10
2018-08-04T22:14:05.157Z,43.80
2018-08-04T22:16:35.649Z,43.83
2018-08-04T22:19:06.575Z,43.93
2018-08-04T22:21:36.970Z,43.43
2018-08-04T22:24:07.478Z,44.07
2018-08-04T22:26:37.690Z,43.87
2018-08-04T22:29:07.887Z,43.93
2018-08-04T22:31:38.732Z,43.67
2018-08-04T22:34:08.877Z,44.00
2018-08-04T22:36:40.108Z,43.43
2018-08-04T22:39:10.158Z,44.63
2018-08-04T22:41:40.225Z,44.13
2018-08-04T22:44:10.511Z,43.03
2018-08-04T22:46:40.671Z,42.80
2018-08-04T22:49:10.849Z,43.20
2018-08-04T22:51:41.021Z,44.83
2018-08-04T22:54:11.393Z,43.70
2018-08-04T22:56:41.595Z,43.20
2018-08-04T22:59:11.905Z,43.83
2018-08-04T23:01:42.108Z,44.90
2018-08-04T23:04:12.226Z,43.57
2018-08-04T23:06:42.401Z,43.67
2018-08-04T23:09:12.784Z,44.30
2018-08-04T23:11:42.849Z,43.20
2018-08-04T23:14:14.169Z,43.70
2018-08-04T23:16:44.772Z,43.87
2018-08-04T23:19:15.333Z,43.37
2018-08-04T23:21:45.782Z,44.40
2018-08-04T23:24:15.936Z,43.80
2018-08-04T23:26:46.840Z,43.93
2018-08-04T23:29:16.937Z,43.03
2018-08-04T23:31:47.043Z,43.30
2018-08-04T23:34:17.381Z,44.67
2018-08-04T23:36:47.597Z,43.90
2018-08-04T23:39:18.698Z,43.30
2018-08-04T23:41:48.993Z,43.07
2018-08-04T23:44:19.497Z,43.83
2018-08-04T23:46:49.895Z,43.80
2018-08-04T23:49:20.728Z,44.23
2018-08-04T23:51:51.032Z,43.47
2018-08-04T23:54:21.193Z,43.53
2018-08-04T23:56:51.537Z,43.03
2018-08-04T23:59:21.838Z,44.10
